• Join FlightAware (Why Join?)
  • Login
  • US Flag 
03:22PM EDT


 

Airport Tracker/Info


-or-


 

Live Flight TrackerFlight Track Log ✈ SWA125 ✈ 13-May-2013 ✈ KMCI - KMSY

Flight Track Log - Related Links

Times and Time Zones

All times are in EDT time to prevent confusion due to time zone crossing. See the SWA125 flight status page for this flight to view local times or setup timezone preferences in your user account.

Time Position Orientation Groundspeed Altitude Reporting Facility
EDT Latitude Longitude Course Direction KTS MPH feet Rate Location/Type
01:13PM 39.2833 -94.6667 90° East 167 192 2,500  Level Kansas City TRACON
01:14PM 39.2667 -94.5833 104° East 242 278 4,500 2,100 Climbing Kansas City TRACON
01:15PM 39.2253 -94.5875 184° South 254 292 5,800 2,700 Climbing Kansas City Center
01:16PM 39.1564 -94.6169 198° South 278 320 8,800 2,640 Climbing Kansas City Center
01:17PM 39.0742 -94.6783 210° Southwest 302 348 11,300 2,460 Climbing Kansas City Center
01:18PM 38.9822 -94.6914 186° South 366 421 14,000 2,520 Climbing Kansas City Center
01:19PM 38.8847 -94.6569 165° South 375 432 16,600 2,400 Climbing Kansas City Center
01:20PM 38.7681 -94.6161 165° South 389 448 19,000 2,100 Climbing Kansas City Center
01:21PM 38.6625 -94.5814 166° South 405 466 21,000 2,040 Climbing Kansas City Center
01:22PM 38.5328 -94.5514 170° South 423 487 23,300 1,920 Climbing Kansas City Center
01:23PM 38.4194 -94.5244 169° South 430 495 25,000 1,740 Climbing Kansas City Center
01:24PM 38.2828 -94.4858 167° South 447 514 27,000 1,680 Climbing Kansas City Center
01:25PM 38.1769 -94.4122 151° Southeast 449 517 28,500 1,320 Climbing Kansas City Center
01:26PM 38.0500 -94.3258 152° Southeast 460 529 29,800 1,320 Climbing Kansas City Center
01:27PM 37.9361 -94.2511 153° Southeast 475 547 31,300 1,620 Climbing Kansas City Center
01:28PM 37.8056 -94.1633 152° Southeast 467 537 33,200 1,680 Climbing Kansas City Center
01:29PM 37.6922 -94.0903 153° Southeast 459 528 34,800 1,200 Climbing Kansas City Center
01:30PM 37.5808 -94.0153 152° Southeast 456 525 35,800 540 Climbing Kansas City Center
01:31PM 37.4697 -93.9422 152° Southeast 453 521 36,000 60 Climbing Kansas City Center
01:32PM 37.3567 -93.8686 153° Southeast 455 524 36,000 480 Level Kansas City Center
01:33PM 37.2442 -93.7931 152° Southeast 457 526 37,000 480 Climbing Kansas City Center
01:34PM 37.1069 -93.7047 153° Southeast 459 528 37,000  Level Kansas City Center
01:35PM 36.9950 -93.6317 152° Southeast 457 526 37,000  Level Kansas City Center
01:36PM 36.8831 -93.5589 153° Southeast 456 525 37,000  Level Kansas City Center
01:38PM 36.7775 -93.4914 153° Southeast 460 529 37,000  Level Kansas City Center
01:39PM 36.6661 -93.4197 153° Southeast 454 522 37,000  Level Kansas City Center
01:39PM 36.5644 -93.3589 154° Southeast 450 518 37,000  Level Memphis Center
01:40PM 36.4742 -93.3014 153° Southeast 450 518 37,000  Level Memphis Center
01:41PM 36.3508 -93.2222 153° Southeast 450 518 37,000  Level Memphis Center
01:42PM 36.2356 -93.1564 155° Southeast 455 524 37,000  Level Memphis Center
01:43PM 36.1247 -93.0833 152° Southeast 455 524 37,000  Level Memphis Center
01:44PM 36.0117 -93.0103 152° Southeast 455 524 37,000  Level Memphis Center
01:45PM 35.9006 -92.9400 153° Southeast 455 524 37,000  Level Memphis Center
01:46PM 35.7769 -92.8647 154° Southeast 455 524 37,000  Level Memphis Center
01:47PM 35.6636 -92.7947 153° Southeast 455 524 37,000  Level Memphis Center
01:48PM 35.5647 -92.7358 154° Southeast 455 524 37,000  Level Memphis Center
01:49PM 35.4389 -92.6531 152° Southeast 461 531 37,000  Level Memphis Center
01:50PM 35.3275 -92.5864 154° Southeast 461 531 37,000  Level Memphis Center
01:51PM 35.2139 -92.5200 154° Southeast 461 531 37,000  Level Memphis Center
01:52PM 35.1025 -92.4511 153° Southeast 461 531 37,000  Level Memphis Center
01:53PM 34.9911 -92.3822 153° Southeast 455 524 37,000  Level Memphis Center
01:54PM 34.8794 -92.3164 154° Southeast 455 524 37,000  Level Memphis Center
01:55PM 34.7697 -92.2481 153° Southeast 450 518 37,000  Level Memphis Center
01:56PM 34.6561 -92.1825 155° Southeast 450 518 37,000  Level Memphis Center
01:57PM 34.5444 -92.1147 153° Southeast 445 512 37,000  Level Memphis Center
01:58PM 34.4325 -92.0494 154° Southeast 445 512 37,000  Level Memphis Center
01:59PM 34.3231 -91.9792 152° Southeast 441 507 37,000  Level Memphis Center
02:00PM 34.2111 -91.9119 154° Southeast 446 513 37,000  Level Memphis Center
02:01PM 34.0992 -91.8472 154° Southeast 446 513 37,000  Level Memphis Center
02:02PM 33.9933 -91.7878 155° Southeast 441 507 37,000  Level Memphis Center
02:03PM 33.8772 -91.7208 154° Southeast 441 507 37,000  Level Memphis Center
02:04PM 33.7736 -91.6642 156° South 456 525 37,000  Level Memphis Center
02:05PM 33.6656 -91.6003 154° Southeast 445 512 37,000  Level Memphis Center
02:06PM 33.5642 -91.5339 151° Southeast 431 496 37,000  Level Memphis Center
02:07PM 33.4519 -91.4725 155° Southeast 426 490 37,000  Level Memphis Center
02:08PM 33.3458 -91.4117 154° Southeast 431 496 37,000  Level Memphis Center
02:09PM 33.2381 -91.3483 154° Southeast 425 489 37,000  Level Memphis Center
02:10PM 33.1278 -91.2875 155° Southeast 425 489 37,000  Level Memphis Center
02:11PM 33.0197 -91.2244 154° Southeast 425 489 37,000  Level Memphis Center
02:12PM 32.8950 -91.1539 155° Southeast 437 503 37,000  Level Memphis Center
02:13PM 32.7867 -91.0886 153° Southeast 442 509 37,000  Level Memphis Center
02:14PM 32.6722 -91.0236 154° Southeast 442 509 37,000 -180 Level Memphis Center
02:15PM 32.5597 -90.9611 155° Southeast 442 509 36,700 -660 Descending Memphis Center
02:16PM 32.4433 -90.8939 154° Southeast 448 516 35,700 -960 Descending Memphis Center
02:17PM 32.3308 -90.8319 155° Southeast 448 516 34,800 -960 Descending Memphis Center
02:18PM 32.2161 -90.7650 154° Southeast 448 516 33,800 -960 Descending Memphis Center
02:19PM 32.1036 -90.7031 155° Southeast 448 516 32,900 -1,020 Descending Memphis Center
02:20PM 32.0486 -90.6711 154° Southeast 450 518 32,300 -1,080 Descending Houston Center
02:21PM 31.9372 -90.6097 155° Southeast 444 511 31,300 -1,620 Descending Houston Center
02:22PM 31.8236 -90.5461 155° Southeast 448 516 29,000 -1,140 Descending Houston Center
02:23PM 31.7072 -90.4806 154° Southeast 460 529 29,000  Level Houston Center
02:24PM 31.5897 -90.4172 155° Southeast 464 534 29,000 -120 Level Houston Center
02:25PM 31.4500 -90.3400 155° Southeast 464 534 28,800 -1,440 Descending Houston Center
02:26PM 31.3333 -90.2739 154° Southeast 466 536 26,100 -2,520 Descending Houston Center
02:27PM 31.2125 -90.2514 171° South 454 522 23,700 -2,280 Descending Houston Center
02:28PM 31.0975 -90.2450 177° South 426 490 21,400 -2,160 Descending Houston Center
02:29PM 30.9872 -90.2356 176° South 406 467 19,300 -2,040 Descending Houston Center
02:30PM 30.8822 -90.2272 176° South 388 447 17,300 -2,280 Descending Houston Center
02:31PM 30.7794 -90.2189 176° South 381 438 15,100 -2,340 Descending Houston Center
02:32PM 30.6689 -90.2258 183° South 371 427 13,100 -2,040 Descending Houston Center
02:33PM 30.5781 -90.2611 198° South 334 384 11,000 -1,980 Descending Houston Center
02:33PM 30.5656 -90.2653 196° South 351 404 10,600 -1,500 Descending Houston Center
02:34PM 30.4872 -90.2961 199° South 342 394 9,500 -1,080 Descending Houston Center
02:34PM 30.4772 -90.3000 199° South 344 396 9,500 -1,620 Level Houston Center
02:35PM 30.4253 -90.3203 199° South 310 357 8,200 -1,560 Descending Houston Center
02:35PM 30.3969 -90.3317 199° South 328 377 7,900 -1,200 Descending Houston Center
02:36PM 30.3406 -90.3547 199° South 296 341 7,000 -1,800 Descending Houston Center
02:36PM 30.3036 -90.3664 195° South 309 356 6,100 -1,500 Descending Houston Center
02:37PM 30.2594 -90.3653 179° South 291 335 5,500 -1,080 Descending Houston Center
02:37PM 30.2250 -90.3661 181° South 293 337 5,000 -1,200 Descending Houston Center
02:38PM 30.1864 -90.3658 180° South 279 321 4,400 -1,500 Descending Houston Center
02:38PM 30.1464 -90.3672 182° South 285 328 3,500 -1,380 Descending Houston Center
02:39PM 30.1050 -90.3689 182° South 274 315 2,900 -1,080 Descending Houston Center
02:39PM 30.0708 -90.3694 181° South 280 322 2,400 -840 Descending Houston Center
02:40PM 30.0381 -90.3714 183° South 229 264 2,100 -540 Descending Houston Center
02:40PM 30.0144 -90.3703 178° South 237 273 1,900 -780 Descending Houston Center
02:41PM 30.0083 -90.3511 110° East 137 158 1,400 -1,260 Descending Houston Center
02:42PM 30.0058 -90.3186 95° East 172 198 600 -960 Descending Houston Center
02:42PM 30.0003 -90.2986 108° East 140 161 300 -660 Descending Houston Center
02:44PM 29.9934 -90.2580 152° Southeast  Level Estimated
02:51PM 29.9934 -90.2580 152° Southeast  Level Estimated